Time;durP1;ratioP1;P1;durP2;ratioP2;P2;SDS_P1;SDS_P2;PMS_P1;PMS_P2;Temp;Humidity;BMP_temperature;BMP_pressure;BME280_temperature;BME280_humidity;BME280_pressure;Samples;Min_cycle;Max_cycle;Signal;HPM_P1;HPM_P2
2023/07/24 00:00:06;;;;;;;8.33;5.70;;;;;;;;;;5033257;28;20584;-64
2023/07/24 00:02:32;;;;;;;6.67;5.47;;;;;;;;;;5033247;28;20249;-64
2023/07/24 00:04:58;;;;;;;11.80;5.93;;;;;;;;;;5033628;28;20179;-64
2023/07/24 00:07:25;;;;;;;9.83;6.07;;;;;;;;;;5015527;28;20270;-64
2023/07/24 00:09:51;;;;;;;7.90;5.87;;;;;;;;;;5033806;28;20629;-64
2023/07/24 00:12:16;;;;;;;6.93;6.23;;;;;;;;;;5033007;28;20203;-64
2023/07/24 00:14:42;;;;;;;11.10;6.20;;;;;;;;;;5033265;28;20179;-64
2023/07/24 00:17:08;;;;;;;8.83;6.60;;;;;;;;;;5015228;28;20183;-65
2023/07/24 00:19:34;;;;;;;9.70;6.50;;;;;;;;;;5033694;28;20183;-64
2023/07/24 00:22:00;;;;;;;9.70;6.33;;;;;;;;;;5033042;28;20211;-64
2023/07/24 00:24:27;;;;;;;11.53;5.70;;;;;;;;;;5033281;28;20550;-64
2023/07/24 00:26:53;;;;;;;15.27;6.30;;;;;;;;;;5033062;28;20182;-64
2023/07/24 00:29:19;;;;;;;9.03;6.47;;;;;;;;;;5033003;28;20175;-64
2023/07/24 00:31:45;;;;;;;8.03;6.40;;;;;;;;;;5032957;28;20246;-64
2023/07/24 00:34:11;;;;;;;7.57;6.50;;;;;;;;;;5033062;28;20183;-64
2023/07/24 00:36:37;;;;;;;8.13;6.23;;;;;;;;;;5032980;28;20213;-64
2023/07/24 00:39:03;;;;;;;10.13;7.30;;;;;;;;;;5033206;28;20646;-64
2023/07/24 00:41:29;;;;;;;11.27;7.53;;;;;;;;;;5033325;28;20202;-64
2023/07/24 00:43:55;;;;;;;8.23;7.30;;;;;;;;;;5033873;28;20175;-64
2023/07/24 00:46:21;;;;;;;10.53;6.53;;;;;;;;;;5033865;28;20266;-64
2023/07/24 00:48:48;;;;;;;9.27;6.47;;;;;;;;;;5034408;28;20172;-64
2023/07/24 00:51:14;;;;;;;9.90;7.43;;;;;;;;;;5033020;28;20195;-65
2023/07/24 00:53:40;;;;;;;9.57;7.40;;;;;;;;;;5014906;28;20195;-64
2023/07/24 00:56:06;;;;;;;7.40;6.60;;;;;;;;;;5015361;28;20684;-64
2023/07/24 00:58:32;;;;;;;12.00;6.83;;;;;;;;;;5032846;28;20222;-63
2023/07/24 01:00:58;;;;;;;8.47;6.43;;;;;;;;;;5014729;28;20199;-64
2023/07/24 01:03:28;;;;;;;8.03;6.73;;;;;;;;;;5015001;28;20202;-64
2023/07/24 01:05:55;;;;;;;8.60;6.53;;;;;;;;;;5032771;28;20241;-64
2023/07/24 01:08:21;;;;;;;9.07;6.57;;;;;;;;;;5032969;28;20661;-64
2023/07/24 01:10:46;;;;;;;8.83;6.70;;;;;;;;;;5032687;28;20261;-64
2023/07/24 01:13:19;;;;;;;7.93;6.90;;;;;;;;;;5032579;28;20203;-64
2023/07/24 01:15:49;;;;;;;8.13;6.77;;;;;;;;;;5032633;28;20187;-64
2023/07/24 01:18:15;;;;;;;8.20;6.50;;;;;;;;;;5032977;28;20180;-64
2023/07/24 01:20:44;;;;;;;9.30;7.07;;;;;;;;;;5032768;28;20234;-64
2023/07/24 01:23:25;;;;;;;9.83;6.87;;;;;;;;;;5032389;28;20569;-64
2023/07/24 01:25:53;;;;;;;12.67;6.90;;;;;;;;;;5032389;28;20214;-65
2023/07/24 01:28:19;;;;;;;10.80;7.57;;;;;;;;;;5034018;28;20175;-65
2023/07/24 01:30:45;;;;;;;10.17;7.60;;;;;;;;;;5036005;28;20202;-66
2023/07/24 01:33:11;;;;;;;10.83;7.17;;;;;;;;;;5036067;28;20206;-64
2023/07/24 01:35:38;;;;;;;9.50;7.13;;;;;;;;;;5018322;28;20175;-64
2023/07/24 01:38:04;;;;;;;10.93;7.00;;;;;;;;;;5035979;28;20211;-65
2023/07/24 01:40:31;;;;;;;8.43;6.83;;;;;;;;;;5035793;28;20199;-65
2023/07/24 01:42:59;;;;;;;10.77;6.97;;;;;;;;;;5035638;28;20215;-64
2023/07/24 01:45:25;;;;;;;12.40;7.37;;;;;;;;;;5035790;28;20750;-64
2023/07/24 01:47:51;;;;;;;9.77;6.67;;;;;;;;;;5035725;28;20253;-64
2023/07/24 01:50:17;;;;;;;9.33;7.07;;;;;;;;;;5035888;28;20294;-65
2023/07/24 01:52:45;;;;;;;11.10;7.50;;;;;;;;;;5017796;28;20321;-64
2023/07/24 01:55:11;;;;;;;14.73;8.93;;;;;;;;;;5035591;28;20267;-64
2023/07/24 01:57:37;;;;;;;14.77;10.30;;;;;;;;;;5036059;28;20262;-65
2023/07/24 02:00:03;;;;;;;18.30;12.97;;;;;;;;;;5035466;28;20172;-64
2023/07/24 02:02:29;;;;;;;18.67;12.10;;;;;;;;;;5035636;28;20561;-64
2023/07/24 02:04:54;;;;;;;19.07;11.80;;;;;;;;;;5035489;28;20683;-64
2023/07/24 02:07:20;;;;;;;20.93;12.50;;;;;;;;;;5035662;28;20190;-64
2023/07/24 02:09:46;;;;;;;15.00;11.13;;;;;;;;;;5035378;28;20240;-64
2023/07/24 02:12:12;;;;;;;13.77;8.90;;;;;;;;;;5035598;28;20249;-65
2023/07/24 02:14:38;;;;;;;14.40;9.83;;;;;;;;;;5035451;28;20554;-64
2023/07/24 02:17:04;;;;;;;13.63;8.10;;;;;;;;;;5017560;28;20676;-64
2023/07/24 02:19:30;;;;;;;13.60;8.40;;;;;;;;;;5035229;28;20245;-64
2023/07/24 02:21:56;;;;;;;10.73;7.73;;;;;;;;;;5035020;28;20222;-64
2023/07/24 02:24:22;;;;;;;11.73;7.57;;;;;;;;;;5035129;28;20181;-64
2023/07/24 02:26:48;;;;;;;11.50;7.40;;;;;;;;;;5017331;28;20230;-64
2023/07/24 02:29:14;;;;;;;8.43;6.60;;;;;;;;;;5017350;28;20179;-64
2023/07/24 02:31:40;;;;;;;8.67;6.63;;;;;;;;;;5034982;28;20241;-64
2023/07/24 02:34:06;;;;;;;10.67;6.23;;;;;;;;;;5017200;28;20191;-64
2023/07/24 02:36:32;;;;;;;12.63;6.57;;;;;;;;;;5017133;28;20182;-65
2023/07/24 02:38:58;;;;;;;8.60;6.20;;;;;;;;;;5034223;28;20179;-65
2023/07/24 02:41:24;;;;;;;9.23;6.83;;;;;;;;;;5016626;28;20578;-65
2023/07/24 02:43:50;;;;;;;9.30;6.50;;;;;;;;;;5034766;28;20251;-65
2023/07/24 02:46:16;;;;;;;7.83;6.37;;;;;;;;;;5034816;28;20215;-65
2023/07/24 02:48:42;;;;;;;9.43;6.40;;;;;;;;;;5034745;28;20175;-65
2023/07/24 02:51:08;;;;;;;11.17;6.10;;;;;;;;;;5034633;28;20183;-64
2023/07/24 02:53:34;;;;;;;11.20;6.40;;;;;;;;;;5017088;28;20707;-66
2023/07/24 02:56:02;;;;;;;8.73;6.60;;;;;;;;;;5034594;28;20702;-64
2023/07/24 02:58:28;;;;;;;6.77;6.07;;;;;;;;;;5034759;28;20641;-66
2023/07/24 03:00:54;;;;;;;9.70;6.63;;;;;;;;;;5016659;28;20210;-65
2023/07/24 03:03:20;;;;;;;7.57;6.30;;;;;;;;;;5034654;28;20195;-65
2023/07/24 03:05:46;;;;;;;9.90;6.60;;;;;;;;;;5016654;28;20185;-65
2023/07/24 03:08:12;;;;;;;13.60;6.63;;;;;;;;;;5016739;28;20180;-65
2023/07/24 03:10:40;;;;;;;14.40;7.10;;;;;;;;;;5034293;28;20175;-65
2023/07/24 03:13:06;;;;;;;7.33;6.47;;;;;;;;;;5034222;28;20203;-65
2023/07/24 03:15:32;;;;;;;11.87;6.80;;;;;;;;;;5016718;28;20202;-65
2023/07/24 03:17:58;;;;;;;19.27;7.37;;;;;;;;;;5034251;28;20186;-64
2023/07/24 03:20:24;;;;;;;16.20;7.10;;;;;;;;;;5034136;28;20270;-65
2023/07/24 03:22:50;;;;;;;13.63;6.93;;;;;;;;;;5034113;28;20199;-64
2023/07/24 03:25:16;;;;;;;10.30;7.00;;;;;;;;;;5034314;28;20188;-64
2023/07/24 03:27:42;;;;;;;11.70;7.87;;;;;;;;;;5034900;28;20214;-65
2023/07/24 03:30:08;;;;;;;12.70;7.47;;;;;;;;;;5034233;28;20183;-65
2023/07/24 03:32:35;;;;;;;18.07;8.20;;;;;;;;;;5034031;28;20207;-65
2023/07/24 03:35:01;;;;;;;14.23;8.13;;;;;;;;;;5033872;28;20190;-65
2023/07/24 03:37:27;;;;;;;14.20;8.33;;;;;;;;;;5016732;28;20182;-65
2023/07/24 03:39:53;;;;;;;13.27;8.07;;;;;;;;;;5034073;28;20183;-65
2023/07/24 03:42:30;;;;;;;9.97;8.27;;;;;;;;;;5033614;28;20215;-66
2023/07/24 03:44:56;;;;;;;21.37;9.27;;;;;;;;;;5034104;28;20751;-65
2023/07/24 03:47:22;;;;;;;15.17;8.50;;;;;;;;;;5033698;28;20210;-65
2023/07/24 03:49:48;;;;;;;16.47;8.30;;;;;;;;;;5015889;28;20179;-66
2023/07/24 03:52:14;;;;;;;15.17;9.03;;;;;;;;;;5033435;28;20688;-65
2023/07/24 03:54:40;;;;;;;13.67;9.07;;;;;;;;;;5015779;28;20205;-65
2023/07/24 03:57:06;;;;;;;17.37;9.33;;;;;;;;;;5033593;28;20282;-65
2023/07/24 03:59:32;;;;;;;15.03;9.10;;;;;;;;;;5033436;28;20544;-65
2023/07/24 04:01:58;;;;;;;17.53;10.07;;;;;;;;;;5033304;28;20238;-66
2023/07/24 04:04:24;;;;;;;20.00;9.37;;;;;;;;;;5033486;28;20206;-65
2023/07/24 04:06:50;;;;;;;17.10;9.57;;;;;;;;;;5033450;28;20190;-65
2023/07/24 04:09:16;;;;;;;15.07;9.60;;;;;;;;;;5015612;28;20187;-65
2023/07/24 04:11:45;;;;;;;21.10;9.60;;;;;;;;;;5033322;28;20182;-65
2023/07/24 04:14:11;;;;;;;16.47;9.60;;;;;;;;;;5033405;28;20179;-67
2023/07/24 04:16:37;;;;;;;15.70;9.53;;;;;;;;;;5033905;28;20656;-65
2023/07/24 04:19:03;;;;;;;14.73;10.20;;;;;;;;;;5033277;28;20186;-65
2023/07/24 04:21:30;;;;;;;16.67;9.67;;;;;;;;;;5032998;28;20615;-65
2023/07/24 04:23:55;;;;;;;17.67;9.97;;;;;;;;;;5015453;28;20207;-64
2023/07/24 04:26:21;;;;;;;15.93;8.50;;;;;;;;;;5033237;28;20206;-64
2023/07/24 04:28:47;;;;;;;17.00;9.73;;;;;;;;;;5015425;28;20179;-65
2023/07/24 04:31:13;;;;;;;20.77;11.10;;;;;;;;;;5015421;28;20198;-64
2023/07/24 04:33:40;;;;;;;23.40;13.53;;;;;;;;;;5033295;28;20231;-66
2023/07/24 04:36:06;;;;;;;19.07;12.60;;;;;;;;;;5033025;28;20266;-66
2023/07/24 04:38:32;;;;;;;21.43;11.30;;;;;;;;;;5032953;28;20176;-65
2023/07/24 04:41:01;;;;;;;19.37;12.53;;;;;;;;;;5015102;28;20211;-65
2023/07/24 04:43:27;;;;;;;23.00;15.47;;;;;;;;;;5015065;28;20218;-65
2023/07/24 04:45:53;;;;;;;23.57;17.67;;;;;;;;;;5032913;28;20191;-65
2023/07/24 04:48:19;;;;;;;19.77;13.10;;;;;;;;;;5033218;28;20171;-65
2023/07/24 04:50:45;;;;;;;18.40;12.30;;;;;;;;;;5013479;23;20267;-70
2023/07/24 04:53:10;;;;;;;19.80;12.13;;;;;;;;;;4993840;28;20177;-70
2023/07/24 04:55:36;;;;;;;16.33;9.83;;;;;;;;;;4993883;28;20263;-72
2023/07/24 04:58:02;;;;;;;18.63;10.63;;;;;;;;;;4992370;28;20181;-71
2023/07/24 05:00:28;;;;;;;22.80;14.13;;;;;;;;;;4993364;28;20196;-71
2023/07/24 05:02:54;;;;;;;14.50;10.70;;;;;;;;;;4993505;28;20339;-71
2023/07/24 05:05:20;;;;;;;18.63;11.20;;;;;;;;;;4997692;28;20219;-71
2023/07/24 05:07:46;;;;;;;19.83;11.03;;;;;;;;;;4997626;28;20177;-72
2023/07/24 05:10:13;;;;;;;20.53;10.40;;;;;;;;;;4997366;28;20626;-71
2023/07/24 05:12:42;;;;;;;12.20;9.87;;;;;;;;;;4996251;28;20191;-71
2023/07/24 05:15:08;;;;;;;24.93;19.30;;;;;;;;;;4996032;28;20227;-71
2023/07/24 05:17:34;;;;;;;25.10;18.33;;;;;;;;;;4997479;28;20642;-71
2023/07/24 05:20:00;;;;;;;21.97;12.97;;;;;;;;;;4996767;28;20230;-70
2023/07/24 05:22:26;;;;;;;15.00;10.67;;;;;;;;;;5000053;28;20200;-71
2023/07/24 05:24:52;;;;;;;13.67;10.03;;;;;;;;;;4998829;28;20294;-71
2023/07/24 05:27:18;;;;;;;16.20;9.90;;;;;;;;;;4997666;28;20177;-72
2023/07/24 05:29:44;;;;;;;14.33;9.13;;;;;;;;;;4997117;28;20229;-71
2023/07/24 05:32:10;;;;;;;17.63;10.13;;;;;;;;;;4997583;28;20192;-72
2023/07/24 05:34:36;;;;;;;17.20;9.07;;;;;;;;;;4995927;28;20693;-71
2023/07/24 05:37:02;;;;;;;18.60;9.60;;;;;;;;;;4997059;28;20180;-71
2023/07/24 05:39:30;;;;;;;13.97;8.37;;;;;;;;;;4996805;28;20192;-70
2023/07/24 05:41:55;;;;;;;14.63;8.57;;;;;;;;;;4997115;28;20196;-70
2023/07/24 05:44:21;;;;;;;12.83;9.03;;;;;;;;;;4996818;28;20176;-71
2023/07/24 05:46:48;;;;;;;14.20;9.33;;;;;;;;;;4995397;28;20272;-71
2023/07/24 05:49:14;;;;;;;17.57;9.20;;;;;;;;;;4996681;28;20553;-71
2023/07/24 05:51:40;;;;;;;13.53;9.70;;;;;;;;;;4995272;28;20271;-71
2023/07/24 05:54:06;;;;;;;13.80;8.87;;;;;;;;;;4996849;28;20560;-71
2023/07/24 05:56:32;;;;;;;16.67;9.80;;;;;;;;;;4996809;28;20259;-71
2023/07/24 05:58:57;;;;;;;17.57;10.23;;;;;;;;;;4996485;28;20176;-71
2023/07/24 06:01:23;;;;;;;14.17;9.77;;;;;;;;;;4996207;28;20208;-70
2023/07/24 06:03:49;;;;;;;17.97;14.00;;;;;;;;;;4995051;28;20185;-71
2023/07/24 06:06:15;;;;;;;21.23;12.50;;;;;;;;;;4994932;28;20184;-71
2023/07/24 06:08:41;;;;;;;21.70;14.57;;;;;;;;;;4996276;28;20184;-71
2023/07/24 06:11:07;;;;;;;17.83;13.60;;;;;;;;;;4994834;28;20197;-72
2023/07/24 06:13:33;;;;;;;21.67;14.87;;;;;;;;;;4994653;28;20283;-71
2023/07/24 06:15:59;;;;;;;17.17;12.00;;;;;;;;;;4996320;28;20236;-71
2023/07/24 06:18:25;;;;;;;17.73;9.93;;;;;;;;;;4994969;28;20185;-71
2023/07/24 06:20:54;;;;;;;15.90;9.33;;;;;;;;;;4996410;28;20211;-72
2023/07/24 06:23:20;;;;;;;13.63;9.40;;;;;;;;;;4994659;28;20184;-72
2023/07/24 06:25:46;;;;;;;12.03;8.67;;;;;;;;;;4995956;28;20654;-72
2023/07/24 06:28:12;;;;;;;10.83;9.10;;;;;;;;;;4996187;28;20168;-73
2023/07/24 06:30:41;;;;;;;13.60;9.20;;;;;;;;;;4997073;28;20250;-72
2023/07/24 06:33:07;;;;;;;13.43;8.53;;;;;;;;;;4996038;28;20647;-72
2023/07/24 06:35:33;;;;;;;11.83;8.57;;;;;;;;;;4996187;28;20264;-72
2023/07/24 06:37:59;;;;;;;11.40;8.07;;;;;;;;;;4995977;28;20257;-72
2023/07/24 06:40:25;;;;;;;10.60;7.77;;;;;;;;;;4995824;28;20204;-72
2023/07/24 06:42:52;;;;;;;10.87;7.90;;;;;;;;;;4994415;28;20243;-72
2023/07/24 06:45:18;;;;;;;8.90;7.57;;;;;;;;;;4996277;28;20184;-72
2023/07/24 06:47:44;;;;;;;10.00;8.03;;;;;;;;;;4996655;28;20184;-73
2023/07/24 06:50:10;;;;;;;13.47;7.63;;;;;;;;;;4996924;28;20212;-72
2023/07/24 06:52:36;;;;;;;10.00;7.17;;;;;;;;;;4995623;28;20242;-71
2023/07/24 06:55:02;;;;;;;11.30;7.73;;;;;;;;;;4996363;28;20658;-72
2023/07/24 06:57:28;;;;;;;12.37;7.73;;;;;;;;;;4994807;28;20184;-72
2023/07/24 06:59:54;;;;;;;11.73;8.00;;;;;;;;;;4994864;28;20201;-72
2023/07/24 07:02:20;;;;;;;12.47;7.77;;;;;;;;;;4994663;28;20219;-72
2023/07/24 07:04:46;;;;;;;9.87;8.27;;;;;;;;;;4995166;28;20177;-73
2023/07/24 07:07:12;;;;;;;11.40;8.13;;;;;;;;;;4994962;28;20184;-72
2023/07/24 07:09:38;;;;;;;15.67;10.37;;;;;;;;;;4995111;28;20207;-72
2023/07/24 07:12:04;;;;;;;11.93;8.47;;;;;;;;;;4995563;28;20200;-72
2023/07/24 07:14:30;;;;;;;13.97;7.80;;;;;;;;;;4995216;28;20177;-72
2023/07/24 07:16:56;;;;;;;12.73;7.60;;;;;;;;;;4994057;28;20199;-72
2023/07/24 07:19:22;;;;;;;10.70;7.37;;;;;;;;;;4994531;28;20299;-72
2023/07/24 07:21:48;;;;;;;12.87;7.97;;;;;;;;;;4995884;28;20614;-72
2023/07/24 07:24:14;;;;;;;12.23;7.33;;;;;;;;;;4994737;28;20236;-72
2023/07/24 07:26:40;;;;;;;12.23;7.03;;;;;;;;;;4993792;28;20173;-72
2023/07/24 07:29:06;;;;;;;10.27;6.00;;;;;;;;;;4995427;28;20173;-72
2023/07/24 07:31:32;;;;;;;7.93;5.53;;;;;;;;;;4995610;28;20204;-71
2023/07/24 07:33:58;;;;;;;5.73;4.30;;;;;;;;;;4994018;28;20196;-72
2023/07/24 07:36:24;;;;;;;8.33;4.20;;;;;;;;;;4994921;28;20180;-71
2023/07/24 07:38:50;;;;;;;7.50;4.43;;;;;;;;;;4994880;28;20184;-71
2023/07/24 07:41:16;;;;;;;6.10;4.00;;;;;;;;;;4994811;28;20224;-72
2023/07/24 07:43:42;;;;;;;4.90;4.00;;;;;;;;;;4994472;28;20180;-71
2023/07/24 07:46:07;;;;;;;4.47;3.53;;;;;;;;;;4993432;28;20662;-71
2023/07/24 07:48:33;;;;;;;5.67;4.10;;;;;;;;;;4993226;28;20716;-71
2023/07/24 07:50:59;;;;;;;13.87;6.13;;;;;;;;;;4994079;28;20722;-71
2023/07/24 07:53:25;;;;;;;7.00;4.50;;;;;;;;;;4993083;28;20220;-71
2023/07/24 07:55:59;;;;;;;5.43;4.10;;;;;;;;;;4994397;28;20180;-71
2023/07/24 07:58:25;;;;;;;4.57;3.47;;;;;;;;;;4993062;28;20181;-71
2023/07/24 08:00:51;;;;;;;3.23;2.93;;;;;;;;;;4993993;28;20287;-71
2023/07/24 08:03:17;;;;;;;4.60;2.90;;;;;;;;;;4994070;28;20242;-71
2023/07/24 08:05:43;;;;;;;4.40;2.90;;;;;;;;;;4994081;28;20647;-71
2023/07/24 08:08:09;;;;;;;4.53;3.00;;;;;;;;;;4994010;28;20200;-70
2023/07/24 08:10:37;;;;;;;4.40;2.67;;;;;;;;;;4992802;28;20695;-71
2023/07/24 08:13:03;;;;;;;2.70;2.50;;;;;;;;;;4994105;28;20260;-70
2023/07/24 08:15:29;;;;;;;3.00;2.70;;;;;;;;;;4992650;28;20200;-70
2023/07/24 08:17:55;;;;;;;3.73;2.50;;;;;;;;;;4992691;28;20709;-71
2023/07/24 08:20:21;;;;;;;2.90;2.57;;;;;;;;;;4993687;28;20776;-71
2023/07/24 08:22:47;;;;;;;2.63;2.00;;;;;;;;;;4994054;28;20185;-71
2023/07/24 08:25:13;;;;;;;2.50;2.30;;;;;;;;;;4994052;28;20172;-70
2023/07/24 08:27:39;;;;;;;2.90;2.60;;;;;;;;;;4992804;28;20231;-71
2023/07/24 08:30:05;;;;;;;3.23;2.30;;;;;;;;;;4992711;28;20196;-73
2023/07/24 08:32:31;;;;;;;2.80;2.20;;;;;;;;;;4993953;28;20717;-71
2023/07/24 08:34:57;;;;;;;2.37;2.17;;;;;;;;;;4995812;28;20180;-71
2023/07/24 08:37:23;;;;;;;3.30;2.30;;;;;;;;;;4994721;28;20184;-70
2023/07/24 08:39:49;;;;;;;2.83;2.60;;;;;;;;;;4998072;28;20201;-70
2023/07/24 08:42:15;;;;;;;3.07;2.43;;;;;;;;;;4998025;28;20247;-70
2023/07/24 08:44:42;;;;;;;2.80;2.60;;;;;;;;;;4997946;28;20189;-70
2023/07/24 08:47:12;;;;;;;4.57;2.60;;;;;;;;;;4998591;28;20199;-71
2023/07/24 08:49:42;;;;;;;3.00;2.80;;;;;;;;;;4997930;28;20200;-71
2023/07/24 08:52:08;;;;;;;2.97;2.50;;;;;;;;;;4996776;28;20191;-71
2023/07/24 08:54:37;;;;;;;4.20;2.67;;;;;;;;;;4996572;28;20208;-71
2023/07/24 08:57:05;;;;;;;3.60;2.73;;;;;;;;;;4997955;28;20183;-71
2023/07/24 08:59:30;;;;;;;3.37;2.47;;;;;;;;;;4996204;28;20200;-71
2023/07/24 09:01:56;;;;;;;2.60;2.37;;;;;;;;;;4997605;28;20219;-71
2023/07/24 09:04:22;;;;;;;3.50;2.67;;;;;;;;;;4997390;28;20168;-71
2023/07/24 09:06:48;;;;;;;5.87;2.33;;;;;;;;;;4997482;28;20263;-71
2023/07/24 09:09:15;;;;;;;3.67;2.50;;;;;;;;;;4996116;28;20180;-71
2023/07/24 09:11:51;;;;;;;4.13;2.37;;;;;;;;;;4996153;28;20275;-71
2023/07/24 09:14:24;;;;;;;4.17;2.77;;;;;;;;;;4996074;28;20177;-71
2023/07/24 09:16:52;;;;;;;2.47;2.27;;;;;;;;;;4996586;28;20180;-71
2023/07/24 09:19:19;;;;;;;3.50;2.70;;;;;;;;;;4999321;28;20192;-71
2023/07/24 09:21:45;;;;;;;2.50;2.30;;;;;;;;;;4998722;28;20212;-71
2023/07/24 09:24:12;;;;;;;2.70;2.20;;;;;;;;;;4998345;28;20208;-71
2023/07/24 09:26:52;;;;;;;2.60;2.40;;;;;;;;;;4997643;28;20173;-71
2023/07/24 09:29:19;;;;;;;3.07;2.63;;;;;;;;;;4997801;28;20221;-71
2023/07/24 09:31:45;;;;;;;3.50;2.63;;;;;;;;;;4997203;28;20262;-71
2023/07/24 09:34:18;;;;;;;4.33;2.80;;;;;;;;;;4995657;28;20596;-71
2023/07/24 09:36:44;;;;;;;2.80;2.60;;;;;;;;;;4996658;28;20195;-71
2023/07/24 09:39:11;;;;;;;2.57;2.30;;;;;;;;;;4996582;28;20184;-71
2023/07/24 09:41:39;;;;;;;3.43;2.70;;;;;;;;;;4996541;28;20204;-71
2023/07/24 09:44:05;;;;;;;3.20;2.40;;;;;;;;;;4996800;28;20231;-71
2023/07/24 09:46:32;;;;;;;2.77;2.27;;;;;;;;;;4995486;28;20181;-71
2023/07/24 09:48:58;;;;;;;2.67;2.37;;;;;;;;;;4996169;28;20176;-71
2023/07/24 09:51:24;;;;;;;2.70;2.50;;;;;;;;;;4996263;28;20633;-71
2023/07/24 09:53:49;;;;;;;2.53;2.33;;;;;;;;;;4995141;28;20184;-71
2023/07/24 09:56:18;;;;;;;2.57;2.37;;;;;;;;;;4997048;28;20560;-71
2023/07/24 09:58:44;;;;;;;5.23;2.70;;;;;;;;;;4996596;28;20188;-71
2023/07/24 10:01:11;;;;;;;3.60;2.40;;;;;;;;;;4996205;28;20204;-71
2023/07/24 10:03:45;;;;;;;2.50;2.30;;;;;;;;;;4995050;28;20208;-71
2023/07/24 10:06:11;;;;;;;2.87;2.57;;;;;;;;;;4995157;28;20310;-71
2023/07/24 10:08:39;;;;;;;3.03;2.50;;;;;;;;;;4994992;28;20292;-71
2023/07/24 10:11:05;;;;;;;3.63;2.40;;;;;;;;;;4996094;28;20705;-71
2023/07/24 10:13:34;;;;;;;3.00;2.70;;;;;;;;;;4996555;28;20527;-70
2023/07/24 10:16:03;;;;;;;2.53;2.37;;;;;;;;;;4996288;28;20184;-71
2023/07/24 10:18:32;;;;;;;2.83;2.50;;;;;;;;;;4996122;28;20598;-71
2023/07/24 10:21:02;;;;;;;3.43;3.10;;;;;;;;;;4994459;28;20219;-70
2023/07/24 10:23:28;;;;;;;4.23;3.03;;;;;;;;;;4996316;28;20205;-70
2023/07/24 10:25:54;;;;;;;3.50;3.20;;;;;;;;;;4994735;28;20212;-70
2023/07/24 10:28:30;;;;;;;3.10;2.80;;;;;;;;;;4994554;28;20272;-70
2023/07/24 10:30:57;;;;;;;3.37;3.07;;;;;;;;;;4995808;28;20215;-70
2023/07/24 10:33:23;;;;;;;3.23;2.93;;;;;;;;;;4994719;28;20532;-70
2023/07/24 10:35:54;;;;;;;3.87;2.97;;;;;;;;;;4994413;28;20185;-69
2023/07/24 10:38:20;;;;;;;4.90;3.87;;;;;;;;;;4994443;28;20200;-70
2023/07/24 10:40:48;;;;;;;3.60;3.30;;;;;;;;;;4994157;28;20216;-70
2023/07/24 10:43:18;;;;;;;5.47;3.50;;;;;;;;;;4995679;28;20206;-70
2023/07/24 10:45:50;;;;;;;3.93;3.43;;;;;;;;;;4995328;28;20215;-71
2023/07/24 10:48:17;;;;;;;7.47;6.67;;;;;;;;;;4995456;28;20244;-71
2023/07/24 10:50:47;;;;;;;5.27;4.70;;;;;;;;;;4995270;28;20291;-71
2023/07/24 10:53:17;;;;;;;5.83;5.23;;;;;;;;;;4994318;28;20291;-72
2023/07/24 10:55:44;;;;;;;7.97;7.20;;;;;;;;;;4994437;28;20250;-71
2023/07/24 10:58:10;;;;;;;9.97;8.93;;;;;;;;;;4994479;28;20211;-71
2023/07/24 11:00:36;;;;;;;8.20;6.27;;;;;;;;;;4994781;28;20235;-71
2023/07/24 11:03:02;;;;;;;8.40;5.57;;;;;;;;;;4994350;28;20626;-72
2023/07/24 11:05:28;;;;;;;7.83;5.60;;;;;;;;;;4993995;28;20289;-70
2023/07/24 11:07:55;;;;;;;12.80;6.67;;;;;;;;;;4995113;28;20184;-71
2023/07/24 11:10:21;;;;;;;10.93;6.87;;;;;;;;;;4993718;28;20682;-71
2023/07/24 11:12:47;;;;;;;13.13;7.33;;;;;;;;;;4993738;28;20219;-70
2023/07/24 11:15:14;;;;;;;7.77;5.27;;;;;;;;;;4993802;28;20216;-70
2023/07/24 11:17:40;;;;;;;12.00;5.40;;;;;;;;;;4994492;28;20188;-70
2023/07/24 11:20:06;;;;;;;7.43;3.70;;;;;;;;;;4998201;28;20196;-69
2023/07/24 11:22:33;;;;;;;6.43;4.60;;;;;;;;;;4995145;28;20291;-69
2023/07/24 11:25:01;;;;;;;8.50;4.80;;;;;;;;;;4993853;28;20188;-69
2023/07/24 11:27:27;;;;;;;11.17;5.23;;;;;;;;;;4994728;28;20343;-70
2023/07/24 11:29:53;;;;;;;8.07;4.87;;;;;;;;;;4993393;28;20674;-70
2023/07/24 11:32:22;;;;;;;11.63;5.77;;;;;;;;;;4994782;28;20709;-70
2023/07/24 11:34:51;;;;;;;9.23;6.40;;;;;;;;;;4994570;28;20192;-70
2023/07/24 11:37:20;;;;;;;8.93;6.10;;;;;;;;;;4994455;28;20191;-70
2023/07/24 11:39:59;;;;;;;8.83;5.80;;;;;;;;;;4994369;28;20279;-70
2023/07/24 11:42:26;;;;;;;9.97;6.40;;;;;;;;;;4994227;28;20740;-70
2023/07/24 11:44:52;;;;;;;8.33;6.20;;;;;;;;;;4993183;28;20180;-71
2023/07/24 11:47:18;;;;;;;15.83;6.63;;;;;;;;;;4994389;28;20199;-71
2023/07/24 11:49:48;;;;;;;6.43;5.83;;;;;;;;;;4992921;28;20220;-71
2023/07/24 11:52:14;;;;;;;6.90;5.30;;;;;;;;;;5017475;23;20247;-67
2023/07/24 11:54:40;;;;;;;7.63;5.97;;;;;;;;;;4996379;28;20177;-67
2023/07/24 11:57:16;;;;;;;9.60;6.47;;;;;;;;;;4996022;28;20180;-67
2023/07/24 11:59:42;;;;;;;6.87;6.07;;;;;;;;;;4995009;28;20226;-67
2023/07/24 12:02:11;;;;;;;7.20;5.50;;;;;;;;;;4993993;28;20208;-67
2023/07/24 12:04:37;;;;;;;7.27;5.43;;;;;;;;;;4993317;28;20177;-67
2023/07/24 12:07:08;;;;;;;6.13;5.30;;;;;;;;;;4994051;28;20180;-67
2023/07/24 12:09:34;;;;;;;6.90;5.50;;;;;;;;;;4994311;28;20165;-68
2023/07/24 12:12:00;;;;;;;7.20;5.27;;;;;;;;;;4994021;28;20207;-69
2023/07/24 12:14:26;;;;;;;5.53;5.00;;;;;;;;;;4994279;28;20260;-67
2023/07/24 12:17:09;;;;;;;4.37;3.97;;;;;;;;;;4993777;28;20184;-68
2023/07/24 12:19:36;;;;;;;6.00;3.77;;;;;;;;;;4992645;28;20175;-68
2023/07/24 12:22:04;;;;;;;3.30;3.00;;;;;;;;;;4993701;28;20223;-68
2023/07/24 12:24:29;;;;;;;5.53;3.47;;;;;;;;;;4992514;28;20650;-68
2023/07/24 12:26:55;;;;;;;5.13;3.33;;;;;;;;;;4992563;28;20195;-68
2023/07/24 12:29:21;;;;;;;4.67;3.53;;;;;;;;;;4992517;28;20184;-68
2023/07/24 12:31:47;;;;;;;3.63;3.33;;;;;;;;;;4994048;28;20200;-68
2023/07/24 12:34:13;;;;;;;4.57;3.60;;;;;;;;;;4995137;28;20184;-68
2023/07/24 12:36:39;;;;;;;4.87;3.77;;;;;;;;;;4994462;28;20216;-68
2023/07/24 12:39:05;;;;;;;3.77;3.43;;;;;;;;;;4995167;28;20184;-68
2023/07/24 12:41:31;;;;;;;5.43;3.30;;;;;;;;;;4994870;28;20658;-69
2023/07/24 12:43:57;;;;;;;4.10;3.70;;;;;;;;;;4994130;28;20187;-68
2023/07/24 12:46:23;;;;;;;3.57;3.27;;;;;;;;;;4993668;28;20230;-68
2023/07/24 12:48:49;;;;;;;5.17;3.97;;;;;;;;;;4992343;28;20185;-68
2023/07/24 12:51:15;;;;;;;4.30;3.37;;;;;;;;;;4993333;28;20181;-68
2023/07/24 12:53:41;;;;;;;6.93;3.20;;;;;;;;;;4992121;28;20224;-67
2023/07/24 12:56:07;;;;;;;2.83;2.57;;;;;;;;;;4993743;28;20191;-68
2023/07/24 12:58:33;;;;;;;4.37;3.63;;;;;;;;;;4993803;28;20176;-68
2023/07/24 13:00:59;;;;;;;4.70;3.17;;;;;;;;;;4992056;28;20227;-68
2023/07/24 13:03:25;;;;;;;4.67;3.10;;;;;;;;;;4993390;28;20283;-68
2023/07/24 13:05:51;;;;;;;5.47;3.17;;;;;;;;;;4992228;28;20208;-68
2023/07/24 13:08:21;;;;;;;3.67;3.27;;;;;;;;;;4992135;28;20192;-68
2023/07/24 13:10:47;;;;;;;5.40;3.20;;;;;;;;;;4993659;28;20215;-68
2023/07/24 13:13:13;;;;;;;3.20;2.90;;;;;;;;;;4993288;28;20209;-69
2023/07/24 13:15:39;;;;;;;3.40;3.10;;;;;;;;;;4993303;28;20185;-68
2023/07/24 13:18:05;;;;;;;3.70;3.40;;;;;;;;;;4993308;28;20200;-68
2023/07/24 13:20:31;;;;;;;3.97;3.30;;;;;;;;;;4993626;28;20691;-68
2023/07/24 13:22:57;;;;;;;4.17;3.10;;;;;;;;;;4991933;28;20586;-68
2023/07/24 13:25:23;;;;;;;3.20;2.90;;;;;;;;;;4996642;28;20530;-68
2023/07/24 13:27:50;;;;;;;3.87;2.30;;;;;;;;;;4995598;28;20196;-68
2023/07/24 13:30:17;;;;;;;2.80;2.60;;;;;;;;;;4995574;28;20559;-68
2023/07/24 13:32:43;;;;;;;3.20;2.20;;;;;;;;;;4997274;28;20200;-68
2023/07/24 13:35:09;;;;;;;2.50;2.30;;;;;;;;;;4995414;28;20201;-68
2023/07/24 13:37:35;;;;;;;2.43;2.30;;;;;;;;;;4995477;28;20319;-68
2023/07/24 13:40:01;;;;;;;2.80;2.60;;;;;;;;;;4996669;28;20216;-68
2023/07/24 13:42:27;;;;;;;2.70;2.50;;;;;;;;;;4995140;28;20212;-68
2023/07/24 13:44:53;;;;;;;2.83;2.40;;;;;;;;;;4996464;28;20183;-68
2023/07/24 13:47:20;;;;;;;2.80;2.53;;;;;;;;;;4996827;28;20203;-68
2023/07/24 13:49:46;;;;;;;3.80;2.30;;;;;;;;;;4996921;28;20177;-68
2023/07/24 13:52:12;;;;;;;2.63;2.43;;;;;;;;;;4995020;28;20295;-68
2023/07/24 13:54:38;;;;;;;2.97;2.67;;;;;;;;;;4995216;28;20271;-68
2023/07/24 13:57:07;;;;;;;3.60;2.97;;;;;;;;;;4996738;28;20188;-68
2023/07/24 13:59:33;;;;;;;2.93;2.67;;;;;;;;;;4996364;28;20173;-68
2023/07/24 14:01:59;;;;;;;2.80;2.60;;;;;;;;;;4994948;28;20227;-68
2023/07/24 14:04:25;;;;;;;2.60;2.40;;;;;;;;;;4996255;28;20684;-68
2023/07/24 14:06:50;;;;;;;2.80;2.60;;;;;;;;;;4996257;28;20532;-68
2023/07/24 14:09:16;;;;;;;3.40;3.00;;;;;;;;;;4996175;28;20247;-68
2023/07/24 14:11:42;;;;;;;2.70;2.30;;;;;;;;;;4996788;28;20287;-68
2023/07/24 14:14:09;;;;;;;3.43;2.67;;;;;;;;;;4996441;28;20257;-68
2023/07/24 14:16:35;;;;;;;2.87;2.60;;;;;;;;;;4996003;28;20176;-68
2023/07/24 14:19:00;;;;;;;2.77;2.50;;;;;;;;;;4995911;28;20528;-68
2023/07/24 14:21:26;;;;;;;3.63;2.83;;;;;;;;;;4995709;28;20212;-68
2023/07/24 14:23:52;;;;;;;3.47;3.00;;;;;;;;;;4995856;28;20258;-68
2023/07/24 14:26:18;;;;;;;3.73;2.67;;;;;;;;;;4994558;28;20184;-68
2023/07/24 14:28:44;;;;;;;3.00;2.60;;;;;;;;;;4995746;28;20259;-68
2023/07/24 14:31:10;;;;;;;3.47;3.03;;;;;;;;;;4994371;28;20220;-68